»·PEaware :: N579WA 0AZ2-KSAN

N579WA :: 0AZ2-KSAN

FLIGHT INFORMATION

Flight Status: Arrived
Operator: Privately registered:
United States
More flights under this callsign
Pilot: Brett J. (11232)
Aircraft: PILATUS PC-12 EAGLE
(PC12)
More flights by this aircraft type
Origin: 0AZ2 Salome Outback
United States
Destination: KSAN San Diego Intl-Lindbergh
United States
More flights between these airports :: More routes between these airports
Route: +BZA J2 GWIRE V66 MZB
File this flight plan on PilotEdge
Remarks:
Altitude:
(Current/Filed)
24,000ft
Speed:
(Current/Filed)
210kts
Departed: 27-Sep-17 06:51 PM
Arrived: 27-Sep-17 07:51 PM
Distance/Time
Traveled:
189nm/0:59
Distance/Time
To Go:
Arrived

Flight Plot

Page will automatically refresh every two minutes.

Flight plan parsing failed; only flown route is shown


Map Options




Map Legend


Flown Route
Filed Route
Departure Airport
Arrival Airport
Navaid (VOR, NDB)
Fix

Horizontal Profiles

Position Reports

Time Latitude Longitude Heading Altitude Ground
Speed
27-Sep-17 18:42 33.781253 -113.639614 270 1935ft 0kts
27-Sep-17 18:43 33.781253 -113.639614 270 1935ft 0kts
27-Sep-17 18:44 33.781253 -113.639614 270 1935ft 0kts
27-Sep-17 18:45 33.781253 -113.639614 270 1935ft 0kts
27-Sep-17 18:46 33.781253 -113.639614 270 1935ft 0kts
27-Sep-17 18:47 33.781253 -113.639614 270 1935ft 0kts
27-Sep-17 18:48 33.781253 -113.639614 270 1935ft 0kts
27-Sep-17 18:49 33.781253 -113.639614 270 1935ft 0kts
27-Sep-17 18:50 33.781253 -113.639614 270 1935ft 0kts
27-Sep-17 18:51 33.781194 -113.639682 193 1935ft 4kts
27-Sep-17 18:52 33.780816 -113.639725 355 1935ft 3kts
27-Sep-17 18:53 33.780629 -113.640596 180 1935ft 15kts
27-Sep-17 18:54 33.775948 -113.640646 180 1935ft 17kts
27-Sep-17 18:55 33.777510 -113.640636 0 1935ft 74kts
27-Sep-17 18:56 33.792744 -113.663966 251 3353ft 162kts
27-Sep-17 18:57 33.770219 -113.710986 223 5723ft 168kts
27-Sep-17 18:58 33.732856 -113.744087 215 8207ft 166kts
27-Sep-17 18:59 33.694942 -113.777481 216 10571ft 171kts
27-Sep-17 19:00 33.656236 -113.812264 216 12851ft 176kts
27-Sep-17 19:01 33.616415 -113.848128 216 15014ft 181kts
27-Sep-17 19:02 33.575325 -113.885120 216 17066ft 186kts
27-Sep-17 19:03 33.533750 -113.922506 220 18857ft 191kts
27-Sep-17 19:04 33.490833 -113.961075 221 20466ft 193kts
27-Sep-17 19:05 33.447511 -113.999927 222 21939ft 194kts
27-Sep-17 19:06 33.403352 -114.039498 223 23192ft 200kts
27-Sep-17 19:07 33.357736 -114.080419 223 23936ft 221kts
27-Sep-17 19:08 33.304609 -114.127984 222 23907ft 249kts
27-Sep-17 19:09 33.248007 -114.178438 222 23904ft 257kts
27-Sep-17 19:10 33.190036 -114.230029 222 23902ft 260kts
27-Sep-17 19:11 33.131868 -114.281711 223 23900ft 261kts
27-Sep-17 19:12 33.073604 -114.333398 223 23897ft 261kts
27-Sep-17 19:13 33.015212 -114.385109 223 23898ft 260kts
27-Sep-17 19:14 32.957096 -114.436494 223 23894ft 260kts
27-Sep-17 19:15 32.899003 -114.487769 223 23891ft 260kts
27-Sep-17 19:16 32.840771 -114.539082 223 23888ft 260kts
27-Sep-17 19:17 32.783437 -114.590852 233 23885ft 254kts
27-Sep-17 19:18 32.766937 -114.665461 271 23887ft 236kts
27-Sep-17 19:19 32.765522 -114.743904 271 23886ft 237kts
27-Sep-17 19:20 32.764018 -114.822355 271 23887ft 238kts
27-Sep-17 19:21 32.762468 -114.901018 272 23888ft 238kts
27-Sep-17 19:22 32.760860 -114.980125 272 23890ft 239kts
27-Sep-17 19:23 32.759206 -115.059077 272 23895ft 239kts
27-Sep-17 19:24 32.757496 -115.138471 272 23894ft 240kts
27-Sep-17 19:25 32.755725 -115.217948 272 23893ft 241kts
27-Sep-17 19:26 32.753901 -115.297627 272 23894ft 242kts
27-Sep-17 19:27 32.752017 -115.377798 272 23893ft 242kts
27-Sep-17 19:28 32.750084 -115.457816 272 23890ft 243kts
27-Sep-17 19:29 32.748802 -115.537824 275 23887ft 241kts
27-Sep-17 19:30 32.751475 -115.617645 275 23893ft 241kts
27-Sep-17 19:31 32.753608 -115.697207 275 23903ft 241kts
27-Sep-17 19:32 32.755584 -115.777124 275 23906ft 241kts
27-Sep-17 19:33 32.757485 -115.856853 275 23910ft 242kts
27-Sep-17 19:34 32.759334 -115.936629 275 23919ft 242kts
27-Sep-17 19:35 32.761145 -116.016691 276 23932ft 242kts
27-Sep-17 19:36 32.762897 -116.096899 276 23953ft 243kts
27-Sep-17 19:37 32.764605 -116.177371 276 23980ft 244kts
27-Sep-17 19:38 32.766273 -116.258303 276 23996ft 245kts
27-Sep-17 19:39 32.767925 -116.340326 276 23999ft 250kts
27-Sep-17 19:40 32.769499 -116.422659 276 24011ft 247kts
27-Sep-17 19:41 32.771022 -116.504294 276 24013ft 247kts
27-Sep-17 19:42 32.772492 -116.585916 276 24009ft 247kts
27-Sep-17 19:43 32.773938 -116.668221 274 23330ft 247kts
27-Sep-17 19:44 32.774919 -116.751361 267 21539ft 268kts
27-Sep-17 19:45 32.719963 -116.807703 202 18488ft 271kts
27-Sep-17 19:46 32.653470 -116.835842 201 14985ft 240kts
27-Sep-17 19:47 32.592988 -116.864201 213 11491ft 229kts
27-Sep-17 19:48 32.594135 -116.926768 319 8023ft 209kts
27-Sep-17 19:49 32.642196 -116.961479 331 4831ft 189kts
27-Sep-17 19:50 32.681172 -116.993458 291 4012ft 177kts
27-Sep-17 19:51 32.698671 -117.055819 289 2752ft 206kts
27-Sep-17 19:52 32.714317 -117.111380 287 1533ft 110kts
27-Sep-17 19:53 32.723006 -117.145420 285 861ft 116kts
27-Sep-17 19:54 32.730354 -117.176283 286 122ft 90kts
27-Sep-17 19:55 32.734469 -117.189708 104 20ft 8kts
27-Sep-17 19:56 32.734260 -117.188839 104 20ft 2kts
27-Sep-17 19:57 32.734529 -117.188541 17 20ft 0kts

Navigation Log

Ident Type
Flight plan parsing failed, navigation log unavailable